Terminal Aerodrome Forecast
Issued by NWS Bismarck, ND

Home | Current Version | Previous Version | Graphics & Text | Print | Product List | Glossary On
Versions: 1 2 3 4 5 6 7 8 9 10 11 12 13 14 15 16 17 18 19
744
FTUS43 KBIS 192321
TAFBIS
TAF
KBIS 192321Z 2000/2024 13006KT P6SM FEW070 SCT250
     FM200700 00000KT P6SM SKC
     FM201600 13006KT P6SM FEW090 FEW250
     FM201800 16011KT P6SM FEW100 FEW250=

USA.gov is the U.S. government's official web portal to all federal, state and local government web resources and services.